sensor_id;sensor_type;location;lat;lon;timestamp;P1;durP1;ratioP1;P2;durP2;ratioP2
22871;SDS011;11603;44.910;8.630;2022-08-21T00:00:27;5.30;;;2.85;;
22871;SDS011;11603;44.910;8.630;2022-08-21T00:02:58;5.63;;;2.50;;
22871;SDS011;11603;44.910;8.630;2022-08-21T00:05:26;6.28;;;3.10;;
22871;SDS011;11603;44.910;8.630;2022-08-21T00:07:52;4.57;;;2.90;;
22871;SDS011;11603;44.910;8.630;2022-08-21T00:10:18;7.25;;;2.80;;
22871;SDS011;11603;44.910;8.630;2022-08-21T00:12:44;5.05;;;3.13;;
22871;SDS011;11603;44.910;8.630;2022-08-21T00:15:12;4.75;;;3.15;;
22871;SDS011;11603;44.910;8.630;2022-08-21T00:17:40;6.22;;;3.00;;
22871;SDS011;11603;44.910;8.630;2022-08-21T00:20:06;4.93;;;2.65;;
22871;SDS011;11603;44.910;8.630;2022-08-21T00:22:34;3.75;;;2.65;;
22871;SDS011;11603;44.910;8.630;2022-08-21T00:25:00;6.07;;;2.67;;
22871;SDS011;11603;44.910;8.630;2022-08-21T00:27:27;7.13;;;2.95;;
22871;SDS011;11603;44.910;8.630;2022-08-21T00:29:53;4.57;;;2.30;;
22871;SDS011;11603;44.910;8.630;2022-08-21T00:32:22;2.97;;;2.50;;
22871;SDS011;11603;44.910;8.630;2022-08-21T00:34:49;3.35;;;2.28;;
22871;SDS011;11603;44.910;8.630;2022-08-21T00:37:16;3.42;;;2.17;;
22871;SDS011;11603;44.910;8.630;2022-08-21T00:39:41;3.53;;;2.28;;
22871;SDS011;11603;44.910;8.630;2022-08-21T00:42:08;4.30;;;2.30;;
22871;SDS011;11603;44.910;8.630;2022-08-21T00:44:34;3.63;;;2.25;;
22871;SDS011;11603;44.910;8.630;2022-08-21T00:47:00;2.45;;;2.15;;
22871;SDS011;11603;44.910;8.630;2022-08-21T00:49:26;6.40;;;2.30;;
22871;SDS011;11603;44.910;8.630;2022-08-21T00:51:53;8.73;;;2.15;;
22871;SDS011;11603;44.910;8.630;2022-08-21T00:54:24;3.03;;;2.10;;
22871;SDS011;11603;44.910;8.630;2022-08-21T00:56:52;6.28;;;2.05;;
22871;SDS011;11603;44.910;8.630;2022-08-21T00:59:22;4.43;;;1.98;;
22871;SDS011;11603;44.910;8.630;2022-08-21T01:01:50;3.33;;;1.95;;
22871;SDS011;11603;44.910;8.630;2022-08-21T01:04:17;5.35;;;2.00;;
22871;SDS011;11603;44.910;8.630;2022-08-21T01:06:43;4.40;;;2.10;;
22871;SDS011;11603;44.910;8.630;2022-08-21T01:09:09;4.20;;;2.15;;
22871;SDS011;11603;44.910;8.630;2022-08-21T01:11:35;2.65;;;2.15;;
22871;SDS011;11603;44.910;8.630;2022-08-21T01:14:01;2.53;;;1.92;;
22871;SDS011;11603;44.910;8.630;2022-08-21T01:16:27;3.03;;;2.08;;
22871;SDS011;11603;44.910;8.630;2022-08-21T01:18:54;2.80;;;1.77;;
22871;SDS011;11603;44.910;8.630;2022-08-21T01:21:24;2.00;;;1.85;;
22871;SDS011;11603;44.910;8.630;2022-08-21T01:23:53;2.97;;;2.03;;
22871;SDS011;11603;44.910;8.630;2022-08-21T01:26:22;5.45;;;2.00;;
22871;SDS011;11603;44.910;8.630;2022-08-21T01:28:52;3.45;;;2.00;;
22871;SDS011;11603;44.910;8.630;2022-08-21T01:31:24;3.17;;;2.53;;
22871;SDS011;11603;44.910;8.630;2022-08-21T01:33:51;4.40;;;2.15;;
22871;SDS011;11603;44.910;8.630;2022-08-21T01:36:17;2.83;;;2.00;;
22871;SDS011;11603;44.910;8.630;2022-08-21T01:38:43;5.18;;;1.88;;
22871;SDS011;11603;44.910;8.630;2022-08-21T01:41:08;3.78;;;1.95;;
22871;SDS011;11603;44.910;8.630;2022-08-21T01:43:34;2.42;;;1.77;;
22871;SDS011;11603;44.910;8.630;2022-08-21T01:45:59;3.72;;;1.70;;
22871;SDS011;11603;44.910;8.630;2022-08-21T01:48:27;2.03;;;1.65;;
22871;SDS011;11603;44.910;8.630;2022-08-21T01:50:52;2.00;;;1.77;;
22871;SDS011;11603;44.910;8.630;2022-08-21T01:53:18;3.38;;;1.90;;
22871;SDS011;11603;44.910;8.630;2022-08-21T01:55:43;2.40;;;1.80;;
22871;SDS011;11603;44.910;8.630;2022-08-21T01:58:09;1.83;;;1.73;;
22871;SDS011;11603;44.910;8.630;2022-08-21T02:00:35;2.53;;;1.45;;
22871;SDS011;11603;44.910;8.630;2022-08-21T02:03:00;2.63;;;1.70;;
22871;SDS011;11603;44.910;8.630;2022-08-21T02:05:26;3.17;;;1.90;;
22871;SDS011;11603;44.910;8.630;2022-08-21T02:07:52;4.07;;;2.45;;
22871;SDS011;11603;44.910;8.630;2022-08-21T02:10:21;3.47;;;1.70;;
22871;SDS011;11603;44.910;8.630;2022-08-21T02:12:48;4.65;;;2.10;;
22871;SDS011;11603;44.910;8.630;2022-08-21T02:15:14;3.35;;;2.30;;
22871;SDS011;11603;44.910;8.630;2022-08-21T02:17:43;3.88;;;2.60;;
22871;SDS011;11603;44.910;8.630;2022-08-21T02:20:17;3.45;;;2.83;;
22871;SDS011;11603;44.910;8.630;2022-08-21T02:22:45;4.32;;;3.58;;
22871;SDS011;11603;44.910;8.630;2022-08-21T02:25:11;3.65;;;2.90;;
22871;SDS011;11603;44.910;8.630;2022-08-21T02:27:37;5.38;;;2.92;;
22871;SDS011;11603;44.910;8.630;2022-08-21T02:30:07;4.38;;;2.85;;
22871;SDS011;11603;44.910;8.630;2022-08-21T02:32:36;6.05;;;3.10;;
22871;SDS011;11603;44.910;8.630;2022-08-21T02:35:02;5.75;;;2.85;;
22871;SDS011;11603;44.910;8.630;2022-08-21T02:37:28;3.35;;;3.05;;
22871;SDS011;11603;44.910;8.630;2022-08-21T02:39:53;6.25;;;2.70;;
22871;SDS011;11603;44.910;8.630;2022-08-21T02:42:19;4.57;;;2.42;;
22871;SDS011;11603;44.910;8.630;2022-08-21T02:44:44;3.22;;;2.65;;
22871;SDS011;11603;44.910;8.630;2022-08-21T02:47:10;4.00;;;2.28;;
22871;SDS011;11603;44.910;8.630;2022-08-21T02:49:35;4.78;;;2.40;;
22871;SDS011;11603;44.910;8.630;2022-08-21T02:52:01;3.40;;;2.80;;
22871;SDS011;11603;44.910;8.630;2022-08-21T02:54:26;2.97;;;2.60;;
22871;SDS011;11603;44.910;8.630;2022-08-21T02:56:52;3.35;;;2.50;;
22871;SDS011;11603;44.910;8.630;2022-08-21T02:59:18;3.60;;;2.70;;
22871;SDS011;11603;44.910;8.630;2022-08-21T03:01:44;3.92;;;2.70;;
22871;SDS011;11603;44.910;8.630;2022-08-21T03:04:09;4.97;;;2.63;;
22871;SDS011;11603;44.910;8.630;2022-08-21T03:06:35;2.80;;;2.60;;
22871;SDS011;11603;44.910;8.630;2022-08-21T03:09:01;4.88;;;2.75;;
22871;SDS011;11603;44.910;8.630;2022-08-21T03:11:27;4.80;;;2.88;;
22871;SDS011;11603;44.910;8.630;2022-08-21T03:13:53;3.40;;;2.85;;
22871;SDS011;11603;44.910;8.630;2022-08-21T03:16:19;6.00;;;2.55;;
22871;SDS011;11603;44.910;8.630;2022-08-21T03:18:45;3.83;;;2.60;;
22871;SDS011;11603;44.910;8.630;2022-08-21T03:21:11;3.28;;;2.50;;
22871;SDS011;11603;44.910;8.630;2022-08-21T03:23:38;3.10;;;2.70;;
22871;SDS011;11603;44.910;8.630;2022-08-21T03:26:05;5.68;;;2.67;;
22871;SDS011;11603;44.910;8.630;2022-08-21T03:28:31;5.57;;;3.05;;
22871;SDS011;11603;44.910;8.630;2022-08-21T03:30:57;3.63;;;2.80;;
22871;SDS011;11603;44.910;8.630;2022-08-21T03:33:23;3.72;;;2.60;;
22871;SDS011;11603;44.910;8.630;2022-08-21T03:35:59;6.10;;;2.70;;
22871;SDS011;11603;44.910;8.630;2022-08-21T03:38:28;3.60;;;2.40;;
22871;SDS011;11603;44.910;8.630;2022-08-21T03:40:55;5.13;;;2.72;;
22871;SDS011;11603;44.910;8.630;2022-08-21T03:43:21;2.50;;;2.30;;
22871;SDS011;11603;44.910;8.630;2022-08-21T03:45:46;6.03;;;2.50;;
22871;SDS011;11603;44.910;8.630;2022-08-21T03:48:12;5.20;;;2.83;;
22871;SDS011;11603;44.910;8.630;2022-08-21T03:50:39;4.97;;;2.80;;
22871;SDS011;11603;44.910;8.630;2022-08-21T03:53:09;5.97;;;2.65;;
22871;SDS011;11603;44.910;8.630;2022-08-21T03:55:36;4.30;;;2.15;;
22871;SDS011;11603;44.910;8.630;2022-08-21T03:58:01;2.40;;;2.20;;
22871;SDS011;11603;44.910;8.630;2022-08-21T04:00:28;4.38;;;2.42;;
22871;SDS011;11603;44.910;8.630;2022-08-21T04:02:54;5.18;;;2.55;;
22871;SDS011;11603;44.910;8.630;2022-08-21T04:05:19;4.50;;;2.42;;
22871;SDS011;11603;44.910;8.630;2022-08-21T04:07:59;4.20;;;2.28;;
22871;SDS011;11603;44.910;8.630;2022-08-21T04:10:28;3.92;;;1.95;;
22871;SDS011;11603;44.910;8.630;2022-08-21T04:12:55;2.83;;;2.20;;
22871;SDS011;11603;44.910;8.630;2022-08-21T04:15:21;3.47;;;2.10;;
22871;SDS011;11603;44.910;8.630;2022-08-21T04:17:48;2.78;;;1.88;;
22871;SDS011;11603;44.910;8.630;2022-08-21T04:20:15;2.67;;;2.15;;
22871;SDS011;11603;44.910;8.630;2022-08-21T04:22:43;3.25;;;1.90;;
22871;SDS011;11603;44.910;8.630;2022-08-21T04:25:09;7.40;;;2.20;;
22871;SDS011;11603;44.910;8.630;2022-08-21T04:27:35;4.10;;;1.92;;
22871;SDS011;11603;44.910;8.630;2022-08-21T04:30:01;3.47;;;1.90;;
22871;SDS011;11603;44.910;8.630;2022-08-21T04:32:28;3.78;;;2.03;;
22871;SDS011;11603;44.910;8.630;2022-08-21T04:34:58;2.65;;;2.20;;
22871;SDS011;11603;44.910;8.630;2022-08-21T04:37:29;4.43;;;2.20;;
22871;SDS011;11603;44.910;8.630;2022-08-21T04:39:55;3.88;;;2.15;;
22871;SDS011;11603;44.910;8.630;2022-08-21T04:42:23;3.10;;;2.35;;
22871;SDS011;11603;44.910;8.630;2022-08-21T04:44:49;7.55;;;2.10;;
22871;SDS011;11603;44.910;8.630;2022-08-21T04:47:15;2.25;;;2.03;;
22871;SDS011;11603;44.910;8.630;2022-08-21T04:49:42;5.38;;;1.98;;
22871;SDS011;11603;44.910;8.630;2022-08-21T04:52:08;2.55;;;2.05;;
22871;SDS011;11603;44.910;8.630;2022-08-21T04:54:34;3.00;;;2.10;;
22871;SDS011;11603;44.910;8.630;2022-08-21T04:57:00;3.25;;;2.47;;
22871;SDS011;11603;44.910;8.630;2022-08-21T04:59:32;6.47;;;2.55;;
22871;SDS011;11603;44.910;8.630;2022-08-21T05:02:00;5.65;;;2.70;;
22871;SDS011;11603;44.910;8.630;2022-08-21T05:04:27;4.65;;;2.40;;
22871;SDS011;11603;44.910;8.630;2022-08-21T05:06:56;3.03;;;2.17;;
22871;SDS011;11603;44.910;8.630;2022-08-21T05:09:26;2.33;;;1.95;;
22871;SDS011;11603;44.910;8.630;2022-08-21T05:11:53;3.65;;;2.40;;
22871;SDS011;11603;44.910;8.630;2022-08-21T05:14:20;3.05;;;1.90;;
22871;SDS011;11603;44.910;8.630;2022-08-21T05:16:46;2.42;;;2.22;;
22871;SDS011;11603;44.910;8.630;2022-08-21T05:19:12;2.75;;;2.00;;
22871;SDS011;11603;44.910;8.630;2022-08-21T05:21:38;4.85;;;2.22;;
22871;SDS011;11603;44.910;8.630;2022-08-21T05:24:07;7.10;;;1.90;;
22871;SDS011;11603;44.910;8.630;2022-08-21T05:26:33;4.22;;;2.53;;
22871;SDS011;11603;44.910;8.630;2022-08-21T05:28:58;3.92;;;2.17;;
22871;SDS011;11603;44.910;8.630;2022-08-21T05:31:24;2.70;;;2.22;;
22871;SDS011;11603;44.910;8.630;2022-08-21T05:33:50;3.55;;;2.10;;
22871;SDS011;11603;44.910;8.630;2022-08-21T05:36:16;7.25;;;2.88;;
22871;SDS011;11603;44.910;8.630;2022-08-21T05:38:42;4.40;;;2.17;;
22871;SDS011;11603;44.910;8.630;2022-08-21T05:41:08;3.92;;;2.38;;
22871;SDS011;11603;44.910;8.630;2022-08-21T05:43:34;3.63;;;2.30;;
22871;SDS011;11603;44.910;8.630;2022-08-21T05:46:02;5.57;;;2.10;;
22871;SDS011;11603;44.910;8.630;2022-08-21T05:48:29;3.20;;;2.15;;
22871;SDS011;11603;44.910;8.630;2022-08-21T05:50:55;3.05;;;2.42;;
22871;SDS011;11603;44.910;8.630;2022-08-21T05:53:22;2.78;;;2.45;;
22871;SDS011;11603;44.910;8.630;2022-08-21T05:55:49;2.60;;;2.40;;
22871;SDS011;11603;44.910;8.630;2022-08-21T05:58:16;4.35;;;2.40;;
22871;SDS011;11603;44.910;8.630;2022-08-21T06:00:45;5.93;;;2.40;;
22871;SDS011;11603;44.910;8.630;2022-08-21T06:03:13;6.20;;;2.80;;
22871;SDS011;11603;44.910;8.630;2022-08-21T06:05:44;4.25;;;2.60;;
22871;SDS011;11603;44.910;8.630;2022-08-21T06:08:10;5.32;;;2.67;;
22871;SDS011;11603;44.910;8.630;2022-08-21T06:10:36;4.10;;;2.40;;
22871;SDS011;11603;44.910;8.630;2022-08-21T06:13:02;3.90;;;2.53;;
22871;SDS011;11603;44.910;8.630;2022-08-21T06:15:28;5.88;;;2.75;;
22871;SDS011;11603;44.910;8.630;2022-08-21T06:17:53;7.15;;;2.95;;
22871;SDS011;11603;44.910;8.630;2022-08-21T06:20:19;4.25;;;2.70;;
22871;SDS011;11603;44.910;8.630;2022-08-21T06:22:45;3.47;;;2.58;;
22871;SDS011;11603;44.910;8.630;2022-08-21T06:25:10;3.47;;;2.38;;
22871;SDS011;11603;44.910;8.630;2022-08-21T06:27:36;4.63;;;3.00;;
22871;SDS011;11603;44.910;8.630;2022-08-21T06:30:02;4.55;;;3.00;;
22871;SDS011;11603;44.910;8.630;2022-08-21T06:32:29;4.38;;;2.92;;
22871;SDS011;11603;44.910;8.630;2022-08-21T06:34:54;3.20;;;2.90;;
22871;SDS011;11603;44.910;8.630;2022-08-21T06:37:20;5.40;;;3.03;;
22871;SDS011;11603;44.910;8.630;2022-08-21T06:39:45;7.28;;;3.63;;
22871;SDS011;11603;44.910;8.630;2022-08-21T06:42:14;4.43;;;3.30;;
22871;SDS011;11603;44.910;8.630;2022-08-21T06:44:43;5.80;;;3.30;;
22871;SDS011;11603;44.910;8.630;2022-08-21T06:47:09;4.15;;;3.08;;
22871;SDS011;11603;44.910;8.630;2022-08-21T06:49:34;5.20;;;3.20;;
22871;SDS011;11603;44.910;8.630;2022-08-21T06:52:00;7.32;;;3.42;;
22871;SDS011;11603;44.910;8.630;2022-08-21T06:54:26;4.28;;;3.20;;
22871;SDS011;11603;44.910;8.630;2022-08-21T06:56:51;4.63;;;2.95;;
22871;SDS011;11603;44.910;8.630;2022-08-21T06:59:17;3.45;;;2.80;;
22871;SDS011;11603;44.910;8.630;2022-08-21T07:01:43;2.75;;;2.50;;
22871;SDS011;11603;44.910;8.630;2022-08-21T07:04:09;4.80;;;2.90;;
22871;SDS011;11603;44.910;8.630;2022-08-21T07:06:35;5.38;;;2.63;;
22871;SDS011;11603;44.910;8.630;2022-08-21T07:09:00;4.15;;;2.78;;
22871;SDS011;11603;44.910;8.630;2022-08-21T07:11:26;2.80;;;2.25;;
22871;SDS011;11603;44.910;8.630;2022-08-21T07:13:53;3.33;;;2.70;;
22871;SDS011;11603;44.910;8.630;2022-08-21T07:16:22;2.83;;;2.53;;
22871;SDS011;11603;44.910;8.630;2022-08-21T07:18:49;3.38;;;2.70;;
22871;SDS011;11603;44.910;8.630;2022-08-21T07:21:14;5.10;;;2.75;;
22871;SDS011;11603;44.910;8.630;2022-08-21T07:23:41;4.68;;;2.20;;
22871;SDS011;11603;44.910;8.630;2022-08-21T07:26:09;2.83;;;2.25;;
22871;SDS011;11603;44.910;8.630;2022-08-21T07:28:35;4.22;;;2.60;;
22871;SDS011;11603;44.910;8.630;2022-08-21T07:31:02;2.72;;;2.17;;
22871;SDS011;11603;44.910;8.630;2022-08-21T07:33:31;5.25;;;2.08;;
22871;SDS011;11603;44.910;8.630;2022-08-21T07:35:58;3.63;;;2.10;;
22871;SDS011;11603;44.910;8.630;2022-08-21T07:38:24;2.85;;;2.20;;
22871;SDS011;11603;44.910;8.630;2022-08-21T07:40:50;2.35;;;2.10;;
22871;SDS011;11603;44.910;8.630;2022-08-21T07:43:19;3.15;;;2.20;;
22871;SDS011;11603;44.910;8.630;2022-08-21T07:45:44;3.60;;;2.17;;
22871;SDS011;11603;44.910;8.630;2022-08-21T07:48:10;4.55;;;1.88;;
22871;SDS011;11603;44.910;8.630;2022-08-21T07:50:36;4.57;;;1.88;;
22871;SDS011;11603;44.910;8.630;2022-08-21T07:53:02;1.85;;;1.50;;
22871;SDS011;11603;44.910;8.630;2022-08-21T07:55:29;2.90;;;1.63;;
22871;SDS011;11603;44.910;8.630;2022-08-21T07:57:54;3.85;;;1.65;;
22871;SDS011;11603;44.910;8.630;2022-08-21T08:00:21;5.57;;;1.90;;
22871;SDS011;11603;44.910;8.630;2022-08-21T08:02:48;4.05;;;1.88;;
22871;SDS011;11603;44.910;8.630;2022-08-21T08:05:16;5.82;;;1.70;;
22871;SDS011;11603;44.910;8.630;2022-08-21T08:07:43;1.65;;;1.42;;
22871;SDS011;11603;44.910;8.630;2022-08-21T08:10:09;4.78;;;1.50;;
22871;SDS011;11603;44.910;8.630;2022-08-21T08:12:36;3.53;;;1.50;;
22871;SDS011;11603;44.910;8.630;2022-08-21T08:15:04;2.85;;;1.67;;
22871;SDS011;11603;44.910;8.630;2022-08-21T08:17:31;2.08;;;1.45;;
22871;SDS011;11603;44.910;8.630;2022-08-21T08:19:57;3.25;;;1.80;;
22871;SDS011;11603;44.910;8.630;2022-08-21T08:22:26;4.03;;;1.80;;
22871;SDS011;11603;44.910;8.630;2022-08-21T08:24:52;1.27;;;1.10;;
22871;SDS011;11603;44.910;8.630;2022-08-21T08:27:18;1.33;;;1.08;;
22871;SDS011;11603;44.910;8.630;2022-08-21T08:29:44;2.30;;;1.10;;
22871;SDS011;11603;44.910;8.630;2022-08-21T08:32:10;2.55;;;0.90;;
22871;SDS011;11603;44.910;8.630;2022-08-21T08:34:36;4.18;;;1.10;;
22871;SDS011;11603;44.910;8.630;2022-08-21T08:37:03;1.13;;;0.82;;
22871;SDS011;11603;44.910;8.630;2022-08-21T08:39:29;3.13;;;1.05;;
22871;SDS011;11603;44.910;8.630;2022-08-21T08:42:01;1.13;;;0.80;;
22871;SDS011;11603;44.910;8.630;2022-08-21T08:44:31;1.80;;;1.20;;
22871;SDS011;11603;44.910;8.630;2022-08-21T08:46:56;1.35;;;1.10;;
22871;SDS011;11603;44.910;8.630;2022-08-21T08:54:55;1.85;;;1.30;;
22871;SDS011;11603;44.910;8.630;2022-08-21T08:57:45;2.92;;;1.20;;
22871;SDS011;11603;44.910;8.630;2022-08-21T09:00:13;2.55;;;1.35;;
22871;SDS011;11603;44.910;8.630;2022-08-21T09:02:43;1.95;;;1.30;;
22871;SDS011;11603;44.910;8.630;2022-08-21T09:05:25;3.17;;;2.78;;
22871;SDS011;11603;44.910;8.630;2022-08-21T09:16:12;2.72;;;1.10;;
22871;SDS011;11603;44.910;8.630;2022-08-21T09:21:43;1.85;;;1.30;;
22871;SDS011;11603;44.910;8.630;2022-08-21T09:26:50;1.45;;;1.27;;
22871;SDS011;11603;44.910;8.630;2022-08-21T09:29:41;3.10;;;1.58;;
22871;SDS011;11603;44.910;8.630;2022-08-21T09:37:34;3.63;;;1.17;;
22871;SDS011;11603;44.910;8.630;2022-08-21T09:40:15;1.30;;;1.15;;
22871;SDS011;11603;44.910;8.630;2022-08-21T09:45:32;1.23;;;1.13;;
22871;SDS011;11603;44.910;8.630;2022-08-21T09:51:04;3.40;;;1.30;;
22871;SDS011;11603;44.910;8.630;2022-08-21T09:53:37;2.78;;;1.35;;
22871;SDS011;11603;44.910;8.630;2022-08-21T09:56:28;2.20;;;1.42;;
22871;SDS011;11603;44.910;8.630;2022-08-21T09:59:35;1.55;;;1.20;;
22871;SDS011;11603;44.910;8.630;2022-08-21T10:02:07;2.00;;;1.38;;
22871;SDS011;11603;44.910;8.630;2022-08-21T10:04:49;3.97;;;1.20;;
22871;SDS011;11603;44.910;8.630;2022-08-21T10:07:20;2.05;;;1.27;;
22871;SDS011;11603;44.910;8.630;2022-08-21T10:09:58;6.32;;;2.55;;
22871;SDS011;11603;44.910;8.630;2022-08-21T10:12:28;5.97;;;2.47;;
22871;SDS011;11603;44.910;8.630;2022-08-21T10:18:18;1.88;;;1.45;;
22871;SDS011;11603;44.910;8.630;2022-08-21T10:23:33;1.30;;;1.20;;
22871;SDS011;11603;44.910;8.630;2022-08-21T10:47:49;1.30;;;1.20;;
22871;SDS011;11603;44.910;8.630;2022-08-21T11:01:49;1.30;;;1.20;;
22871;SDS011;11603;44.910;8.630;2022-08-21T11:07:06;7.35;;;1.90;;
22871;SDS011;11603;44.910;8.630;2022-08-21T11:09:35;4.20;;;1.30;;
22871;SDS011;11603;44.910;8.630;2022-08-21T11:17:15;2.50;;;1.30;;
22871;SDS011;11603;44.910;8.630;2022-08-21T11:19:56;3.10;;;1.40;;
22871;SDS011;11603;44.910;8.630;2022-08-21T11:22:43;4.80;;;1.90;;
22871;SDS011;11603;44.910;8.630;2022-08-21T11:25:16;3.72;;;1.65;;
22871;SDS011;11603;44.910;8.630;2022-08-21T11:27:49;2.25;;;1.52;;
22871;SDS011;11603;44.910;8.630;2022-08-21T11:30:19;2.28;;;1.60;;
22871;SDS011;11603;44.910;8.630;2022-08-21T11:35:47;1.75;;;1.40;;
22871;SDS011;11603;44.910;8.630;2022-08-21T11:38:22;1.63;;;1.30;;
22871;SDS011;11603;44.910;8.630;2022-08-21T11:51:11;2.33;;;1.35;;
22871;SDS011;11603;44.910;8.630;2022-08-21T11:53:52;2.58;;;1.20;;
22871;SDS011;11603;44.910;8.630;2022-08-21T11:56:34;4.47;;;1.30;;
22871;SDS011;11603;44.910;8.630;2022-08-21T11:59:05;2.53;;;1.30;;
22871;SDS011;11603;44.910;8.630;2022-08-21T12:01:36;2.05;;;1.30;;
22871;SDS011;11603;44.910;8.630;2022-08-21T12:06:56;4.82;;;1.60;;
22871;SDS011;11603;44.910;8.630;2022-08-21T12:12:00;2.88;;;1.50;;
22871;SDS011;11603;44.910;8.630;2022-08-21T12:17:06;7.57;;;1.40;;
22871;SDS011;11603;44.910;8.630;2022-08-21T12:19:33;4.50;;;1.20;;
22871;SDS011;11603;44.910;8.630;2022-08-21T12:22:08;1.27;;;1.17;;
22871;SDS011;11603;44.910;8.630;2022-08-21T12:24:49;1.40;;;1.30;;
22871;SDS011;11603;44.910;8.630;2022-08-21T12:30:05;3.47;;;1.60;;
22871;SDS011;11603;44.910;8.630;2022-08-21T12:32:45;2.65;;;1.23;;
22871;SDS011;11603;44.910;8.630;2022-08-21T12:35:20;1.92;;;1.42;;
22871;SDS011;11603;44.910;8.630;2022-08-21T12:37:51;1.95;;;1.20;;
22871;SDS011;11603;44.910;8.630;2022-08-21T12:40:26;1.30;;;1.10;;
22871;SDS011;11603;44.910;8.630;2022-08-21T12:42:56;4.22;;;1.23;;
22871;SDS011;11603;44.910;8.630;2022-08-21T12:45:39;5.32;;;0.98;;
22871;SDS011;11603;44.910;8.630;2022-08-21T12:48:25;2.22;;;1.13;;
22871;SDS011;11603;44.910;8.630;2022-08-21T12:50:57;4.88;;;1.10;;
22871;SDS011;11603;44.910;8.630;2022-08-21T12:56:09;1.10;;;1.00;;
22871;SDS011;11603;44.910;8.630;2022-08-21T12:58:39;1.92;;;0.90;;
22871;SDS011;11603;44.910;8.630;2022-08-21T13:01:07;1.77;;;1.02;;
22871;SDS011;11603;44.910;8.630;2022-08-21T13:03:42;1.33;;;0.80;;
22871;SDS011;11603;44.910;8.630;2022-08-21T13:06:12;3.25;;;1.10;;
22871;SDS011;11603;44.910;8.630;2022-08-21T13:08:41;2.75;;;1.10;;
22871;SDS011;11603;44.910;8.630;2022-08-21T13:11:08;2.00;;;1.30;;
22871;SDS011;11603;44.910;8.630;2022-08-21T13:13:35;2.03;;;1.27;;
22871;SDS011;11603;44.910;8.630;2022-08-21T13:16:07;1.38;;;1.00;;
22871;SDS011;11603;44.910;8.630;2022-08-21T13:19:00;4.32;;;1.00;;
22871;SDS011;11603;44.910;8.630;2022-08-21T13:21:41;3.97;;;0.98;;
22871;SDS011;11603;44.910;8.630;2022-08-21T13:26:41;1.63;;;1.00;;
22871;SDS011;11603;44.910;8.630;2022-08-21T13:29:07;1.67;;;1.20;;
22871;SDS011;11603;44.910;8.630;2022-08-21T13:31:36;1.08;;;1.02;;
22871;SDS011;11603;44.910;8.630;2022-08-21T13:34:04;2.55;;;1.10;;
22871;SDS011;11603;44.910;8.630;2022-08-21T13:36:38;1.10;;;0.90;;
22871;SDS011;11603;44.910;8.630;2022-08-21T13:39:10;0.98;;;0.95;;
22871;SDS011;11603;44.910;8.630;2022-08-21T13:41:37;1.88;;;0.90;;
22871;SDS011;11603;44.910;8.630;2022-08-21T13:44:19;1.95;;;0.90;;
22871;SDS011;11603;44.910;8.630;2022-08-21T13:46:52;2.08;;;1.00;;
22871;SDS011;11603;44.910;8.630;2022-08-21T13:49:19;1.40;;;1.05;;
22871;SDS011;11603;44.910;8.630;2022-08-21T13:51:48;1.30;;;1.20;;
22871;SDS011;11603;44.910;8.630;2022-08-21T13:54:16;1.00;;;0.90;;
22871;SDS011;11603;44.910;8.630;2022-08-21T13:56:48;0.90;;;0.90;;
22871;SDS011;11603;44.910;8.630;2022-08-21T13:59:23;3.00;;;1.00;;
22871;SDS011;11603;44.910;8.630;2022-08-21T14:02:00;4.22;;;1.35;;
22871;SDS011;11603;44.910;8.630;2022-08-21T14:04:50;1.23;;;0.90;;
22871;SDS011;11603;44.910;8.630;2022-08-21T14:07:25;1.88;;;0.90;;
22871;SDS011;11603;44.910;8.630;2022-08-21T14:09:56;3.03;;;1.00;;
22871;SDS011;11603;44.910;8.630;2022-08-21T14:15:23;3.45;;;1.08;;
22871;SDS011;11603;44.910;8.630;2022-08-21T14:17:50;2.05;;;1.00;;
22871;SDS011;11603;44.910;8.630;2022-08-21T14:20:31;1.17;;;0.73;;
22871;SDS011;11603;44.910;8.630;2022-08-21T14:22:58;0.90;;;0.90;;
22871;SDS011;11603;44.910;8.630;2022-08-21T14:30:51;2.90;;;1.10;;
22871;SDS011;11603;44.910;8.630;2022-08-21T14:33:27;1.45;;;0.90;;
22871;SDS011;11603;44.910;8.630;2022-08-21T14:35:55;2.85;;;0.98;;
22871;SDS011;11603;44.910;8.630;2022-08-21T14:38:22;3.08;;;1.33;;
22871;SDS011;11603;44.910;8.630;2022-08-21T14:40:53;5.82;;;0.98;;
22871;SDS011;11603;44.910;8.630;2022-08-21T14:43:21;0.93;;;0.90;;
22871;SDS011;11603;44.910;8.630;2022-08-21T14:45:47;1.63;;;1.00;;
22871;SDS011;11603;44.910;8.630;2022-08-21T14:48:13;0.80;;;0.80;;
22871;SDS011;11603;44.910;8.630;2022-08-21T14:50:39;0.80;;;0.80;;
22871;SDS011;11603;44.910;8.630;2022-08-21T14:53:06;1.17;;;0.85;;
22871;SDS011;11603;44.910;8.630;2022-08-21T14:55:32;0.90;;;0.90;;
22871;SDS011;11603;44.910;8.630;2022-08-21T14:58:18;4.43;;;0.95;;
22871;SDS011;11603;44.910;8.630;2022-08-21T15:00:44;0.90;;;0.80;;
22871;SDS011;11603;44.910;8.630;2022-08-21T15:03:10;1.90;;;1.02;;
22871;SDS011;11603;44.910;8.630;2022-08-21T15:05:35;0.80;;;0.70;;
22871;SDS011;11603;44.910;8.630;2022-08-21T15:08:01;1.20;;;0.90;;
22871;SDS011;11603;44.910;8.630;2022-08-21T15:10:27;0.95;;;0.82;;
22871;SDS011;11603;44.910;8.630;2022-08-21T15:12:54;0.90;;;0.90;;
22871;SDS011;11603;44.910;8.630;2022-08-21T15:15:22;2.15;;;1.00;;
22871;SDS011;11603;44.910;8.630;2022-08-21T15:17:47;1.10;;;1.00;;
22871;SDS011;11603;44.910;8.630;2022-08-21T15:20:13;1.23;;;1.00;;
22871;SDS011;11603;44.910;8.630;2022-08-21T15:22:39;2.67;;;0.80;;
22871;SDS011;11603;44.910;8.630;2022-08-21T15:25:05;2.60;;;1.20;;
22871;SDS011;11603;44.910;8.630;2022-08-21T15:27:31;3.00;;;1.48;;
22871;SDS011;11603;44.910;8.630;2022-08-21T15:29:57;2.78;;;1.00;;
22871;SDS011;11603;44.910;8.630;2022-08-21T15:32:26;2.33;;;1.30;;
22871;SDS011;11603;44.910;8.630;2022-08-21T15:34:54;2.25;;;1.33;;
22871;SDS011;11603;44.910;8.630;2022-08-21T15:37:21;1.88;;;1.40;;
22871;SDS011;11603;44.910;8.630;2022-08-21T15:39:48;2.10;;;1.65;;
22871;SDS011;11603;44.910;8.630;2022-08-21T15:42:14;2.20;;;1.27;;
22871;SDS011;11603;44.910;8.630;2022-08-21T15:44:40;3.40;;;1.20;;
22871;SDS011;11603;44.910;8.630;2022-08-21T15:47:12;1.80;;;1.17;;
22871;SDS011;11603;44.910;8.630;2022-08-21T15:49:40;1.85;;;1.38;;
22871;SDS011;11603;44.910;8.630;2022-08-21T15:52:10;1.50;;;1.10;;
22871;SDS011;11603;44.910;8.630;2022-08-21T15:54:36;1.60;;;1.00;;
22871;SDS011;11603;44.910;8.630;2022-08-21T15:57:02;1.48;;;1.30;;
22871;SDS011;11603;44.910;8.630;2022-08-21T15:59:27;3.38;;;1.02;;
22871;SDS011;11603;44.910;8.630;2022-08-21T16:02:04;1.70;;;1.50;;
22871;SDS011;11603;44.910;8.630;2022-08-21T16:04:30;3.08;;;1.33;;
22871;SDS011;11603;44.910;8.630;2022-08-21T16:06:56;2.03;;;1.15;;
22871;SDS011;11603;44.910;8.630;2022-08-21T16:09:21;2.28;;;1.30;;
22871;SDS011;11603;44.910;8.630;2022-08-21T16:11:47;1.33;;;1.23;;
22871;SDS011;11603;44.910;8.630;2022-08-21T16:14:13;2.40;;;1.10;;
22871;SDS011;11603;44.910;8.630;2022-08-21T16:16:40;1.50;;;1.40;;
22871;SDS011;11603;44.910;8.630;2022-08-21T16:19:07;1.15;;;1.05;;
22871;SDS011;11603;44.910;8.630;2022-08-21T16:21:34;1.73;;;1.08;;
22871;SDS011;11603;44.910;8.630;2022-08-21T16:24:00;1.92;;;1.35;;
22871;SDS011;11603;44.910;8.630;2022-08-21T16:26:26;5.43;;;1.15;;
22871;SDS011;11603;44.910;8.630;2022-08-21T16:28:52;2.92;;;1.00;;
22871;SDS011;11603;44.910;8.630;2022-08-21T16:31:22;1.75;;;1.30;;
22871;SDS011;11603;44.910;8.630;2022-08-21T16:33:49;1.42;;;1.00;;
22871;SDS011;11603;44.910;8.630;2022-08-21T16:36:17;1.52;;;1.00;;
22871;SDS011;11603;44.910;8.630;2022-08-21T16:38:43;1.30;;;1.08;;
22871;SDS011;11603;44.910;8.630;2022-08-21T16:41:10;4.65;;;1.20;;
22871;SDS011;11603;44.910;8.630;2022-08-21T16:43:37;1.60;;;1.05;;
22871;SDS011;11603;44.910;8.630;2022-08-21T16:46:05;2.45;;;1.52;;
22871;SDS011;11603;44.910;8.630;2022-08-21T16:48:33;3.67;;;1.55;;
22871;SDS011;11603;44.910;8.630;2022-08-21T16:50:59;2.05;;;1.25;;